sensor_id;sensor_type;location;lat;lon;timestamp;P1;durP1;ratioP1;P2;durP2;ratioP2
42518;SDS011;28147;47.520;18.920;2024-03-02T00:00:05;28.08;;;13.55;;
42518;SDS011;28147;47.520;18.920;2024-03-02T00:02:43;23.20;;;13.10;;
42518;SDS011;28147;47.520;18.920;2024-03-02T00:05:16;25.17;;;13.57;;
42518;SDS011;28147;47.520;18.920;2024-03-02T00:10:41;24.08;;;13.88;;
42518;SDS011;28147;47.520;18.920;2024-03-02T00:13:06;19.88;;;13.27;;
42518;SDS011;28147;47.520;18.920;2024-03-02T00:15:48;28.27;;;13.18;;
42518;SDS011;28147;47.520;18.920;2024-03-02T00:20:49;26.10;;;13.95;;
42518;SDS011;28147;47.520;18.920;2024-03-02T00:23:18;22.92;;;13.25;;
42518;SDS011;28147;47.520;18.920;2024-03-02T00:25:47;25.75;;;14.25;;
42518;SDS011;28147;47.520;18.920;2024-03-02T00:28:14;23.85;;;13.68;;
42518;SDS011;28147;47.520;18.920;2024-03-02T00:33:43;24.65;;;13.63;;
42518;SDS011;28147;47.520;18.920;2024-03-02T00:36:10;22.83;;;14.00;;
42518;SDS011;28147;47.520;18.920;2024-03-02T00:38:55;27.13;;;14.23;;
42518;SDS011;28147;47.520;18.920;2024-03-02T00:41:28;25.13;;;13.85;;
42518;SDS011;28147;47.520;18.920;2024-03-02T00:44:04;20.95;;;12.73;;
42518;SDS011;28147;47.520;18.920;2024-03-02T00:46:35;24.33;;;12.45;;
42518;SDS011;28147;47.520;18.920;2024-03-02T00:49:02;24.63;;;13.30;;
42518;SDS011;28147;47.520;18.920;2024-03-02T00:51:32;20.20;;;12.95;;
42518;SDS011;28147;47.520;18.920;2024-03-02T00:54:00;22.92;;;13.98;;
42518;SDS011;28147;47.520;18.920;2024-03-02T00:56:29;23.88;;;13.43;;
42518;SDS011;28147;47.520;18.920;2024-03-02T00:58:55;24.80;;;13.75;;
42518;SDS011;28147;47.520;18.920;2024-03-02T01:01:20;24.75;;;13.38;;
42518;SDS011;28147;47.520;18.920;2024-03-02T01:03:46;29.00;;;14.00;;
42518;SDS011;28147;47.520;18.920;2024-03-02T01:06:11;22.08;;;12.98;;
42518;SDS011;28147;47.520;18.920;2024-03-02T01:08:37;24.80;;;14.75;;
42518;SDS011;28147;47.520;18.920;2024-03-02T01:11:03;24.85;;;13.38;;
42518;SDS011;28147;47.520;18.920;2024-03-02T01:13:29;25.35;;;14.40;;
42518;SDS011;28147;47.520;18.920;2024-03-02T01:15:55;20.17;;;13.20;;
42518;SDS011;28147;47.520;18.920;2024-03-02T01:18:21;22.52;;;13.88;;
42518;SDS011;28147;47.520;18.920;2024-03-02T01:20:47;25.55;;;13.52;;
42518;SDS011;28147;47.520;18.920;2024-03-02T01:23:12;30.17;;;14.27;;
42518;SDS011;28147;47.520;18.920;2024-03-02T01:25:38;27.20;;;15.02;;
42518;SDS011;28147;47.520;18.920;2024-03-02T01:28:03;21.45;;;13.52;;
42518;SDS011;28147;47.520;18.920;2024-03-02T01:30:29;25.88;;;14.52;;
42518;SDS011;28147;47.520;18.920;2024-03-02T01:32:54;22.98;;;13.32;;
42518;SDS011;28147;47.520;18.920;2024-03-02T01:35:20;25.02;;;13.82;;
42518;SDS011;28147;47.520;18.920;2024-03-02T01:37:45;26.98;;;13.65;;
42518;SDS011;28147;47.520;18.920;2024-03-02T01:40:10;27.75;;;14.60;;
42518;SDS011;28147;47.520;18.920;2024-03-02T01:42:39;22.35;;;13.55;;
42518;SDS011;28147;47.520;18.920;2024-03-02T01:45:07;24.60;;;13.77;;
42518;SDS011;28147;47.520;18.920;2024-03-02T01:47:33;25.02;;;13.23;;
42518;SDS011;28147;47.520;18.920;2024-03-02T01:49:59;27.27;;;14.25;;
42518;SDS011;28147;47.520;18.920;2024-03-02T01:52:25;25.35;;;13.35;;
42518;SDS011;28147;47.520;18.920;2024-03-02T01:54:50;22.08;;;13.63;;
42518;SDS011;28147;47.520;18.920;2024-03-02T01:57:16;22.58;;;13.15;;
42518;SDS011;28147;47.520;18.920;2024-03-02T01:59:42;23.13;;;12.65;;
42518;SDS011;28147;47.520;18.920;2024-03-02T02:02:07;21.90;;;13.18;;
42518;SDS011;28147;47.520;18.920;2024-03-02T02:04:33;20.33;;;12.40;;
42518;SDS011;28147;47.520;18.920;2024-03-02T02:06:58;26.27;;;13.18;;
42518;SDS011;28147;47.520;18.920;2024-03-02T02:09:24;25.67;;;13.65;;
42518;SDS011;28147;47.520;18.920;2024-03-02T02:11:50;21.60;;;12.70;;
42518;SDS011;28147;47.520;18.920;2024-03-02T02:14:16;23.65;;;14.18;;
42518;SDS011;28147;47.520;18.920;2024-03-02T02:16:41;28.63;;;14.05;;
42518;SDS011;28147;47.520;18.920;2024-03-02T02:19:06;24.40;;;12.98;;
42518;SDS011;28147;47.520;18.920;2024-03-02T02:21:32;23.50;;;12.68;;
42518;SDS011;28147;47.520;18.920;2024-03-02T02:23:57;32.63;;;13.88;;
42518;SDS011;28147;47.520;18.920;2024-03-02T02:26:22;22.65;;;12.93;;
42518;SDS011;28147;47.520;18.920;2024-03-02T02:28:47;24.65;;;12.32;;
42518;SDS011;28147;47.520;18.920;2024-03-02T02:31:13;19.17;;;11.50;;
42518;SDS011;28147;47.520;18.920;2024-03-02T02:33:42;23.85;;;12.15;;
42518;SDS011;28147;47.520;18.920;2024-03-02T02:36:08;25.63;;;12.65;;
42518;SDS011;28147;47.520;18.920;2024-03-02T02:38:36;19.70;;;12.25;;
42518;SDS011;28147;47.520;18.920;2024-03-02T02:41:05;21.30;;;10.98;;
42518;SDS011;28147;47.520;18.920;2024-03-02T02:43:30;21.17;;;11.15;;
42518;SDS011;28147;47.520;18.920;2024-03-02T02:45:55;22.10;;;11.68;;
42518;SDS011;28147;47.520;18.920;2024-03-02T02:48:21;22.25;;;12.00;;
42518;SDS011;28147;47.520;18.920;2024-03-02T02:50:46;19.75;;;11.43;;
42518;SDS011;28147;47.520;18.920;2024-03-02T02:53:11;23.40;;;11.45;;
42518;SDS011;28147;47.520;18.920;2024-03-02T02:55:37;20.05;;;11.13;;
42518;SDS011;28147;47.520;18.920;2024-03-02T02:58:05;23.38;;;11.77;;
42518;SDS011;28147;47.520;18.920;2024-03-02T03:00:34;19.92;;;11.13;;
42518;SDS011;28147;47.520;18.920;2024-03-02T03:02:59;19.20;;;10.82;;
42518;SDS011;28147;47.520;18.920;2024-03-02T03:05:24;19.98;;;11.80;;
42518;SDS011;28147;47.520;18.920;2024-03-02T03:07:50;21.60;;;11.23;;
42518;SDS011;28147;47.520;18.920;2024-03-02T03:10:15;20.60;;;11.95;;
42518;SDS011;28147;47.520;18.920;2024-03-02T03:12:41;18.40;;;10.93;;
42518;SDS011;28147;47.520;18.920;2024-03-02T03:15:10;20.10;;;11.95;;
42518;SDS011;28147;47.520;18.920;2024-03-02T03:17:36;18.35;;;10.95;;
42518;SDS011;28147;47.520;18.920;2024-03-02T03:20:02;20.95;;;11.32;;
42518;SDS011;28147;47.520;18.920;2024-03-02T03:22:29;19.90;;;10.43;;
42518;SDS011;28147;47.520;18.920;2024-03-02T03:24:54;17.02;;;10.73;;
42518;SDS011;28147;47.520;18.920;2024-03-02T03:27:19;19.38;;;11.40;;
42518;SDS011;28147;47.520;18.920;2024-03-02T03:29:45;19.75;;;10.38;;
42518;SDS011;28147;47.520;18.920;2024-03-02T03:32:10;18.65;;;10.45;;
42518;SDS011;28147;47.520;18.920;2024-03-02T03:34:36;19.45;;;11.40;;
42518;SDS011;28147;47.520;18.920;2024-03-02T03:37:02;19.98;;;10.00;;
42518;SDS011;28147;47.520;18.920;2024-03-02T03:39:27;19.08;;;10.90;;
42518;SDS011;28147;47.520;18.920;2024-03-02T03:41:53;16.98;;;10.00;;
42518;SDS011;28147;47.520;18.920;2024-03-02T03:44:19;20.95;;;11.60;;
42518;SDS011;28147;47.520;18.920;2024-03-02T03:46:44;21.05;;;12.15;;
42518;SDS011;28147;47.520;18.920;2024-03-02T03:49:09;20.38;;;11.27;;
42518;SDS011;28147;47.520;18.920;2024-03-02T03:51:35;24.05;;;12.68;;
42518;SDS011;28147;47.520;18.920;2024-03-02T03:54:00;17.88;;;10.60;;
42518;SDS011;28147;47.520;18.920;2024-03-02T03:56:26;21.33;;;12.05;;
42518;SDS011;28147;47.520;18.920;2024-03-02T03:58:51;24.33;;;11.88;;
42518;SDS011;28147;47.520;18.920;2024-03-02T04:01:17;20.92;;;11.48;;
42518;SDS011;28147;47.520;18.920;2024-03-02T04:03:44;19.73;;;11.93;;
42518;SDS011;28147;47.520;18.920;2024-03-02T04:06:09;18.23;;;11.20;;
42518;SDS011;28147;47.520;18.920;2024-03-02T04:08:35;19.73;;;11.80;;
42518;SDS011;28147;47.520;18.920;2024-03-02T04:11:00;21.83;;;12.38;;
42518;SDS011;28147;47.520;18.920;2024-03-02T04:13:27;24.15;;;12.43;;
42518;SDS011;28147;47.520;18.920;2024-03-02T04:15:53;23.92;;;12.43;;
42518;SDS011;28147;47.520;18.920;2024-03-02T04:18:18;22.00;;;12.18;;
42518;SDS011;28147;47.520;18.920;2024-03-02T04:20:44;22.67;;;12.55;;
42518;SDS011;28147;47.520;18.920;2024-03-02T04:23:09;22.58;;;12.48;;
42518;SDS011;28147;47.520;18.920;2024-03-02T04:25:34;23.90;;;12.85;;
42518;SDS011;28147;47.520;18.920;2024-03-02T04:28:01;23.67;;;11.98;;
42518;SDS011;28147;47.520;18.920;2024-03-02T04:30:26;23.40;;;13.05;;
42518;SDS011;28147;47.520;18.920;2024-03-02T04:32:51;24.27;;;12.63;;
42518;SDS011;28147;47.520;18.920;2024-03-02T04:35:17;26.50;;;14.45;;
42518;SDS011;28147;47.520;18.920;2024-03-02T04:37:42;23.88;;;13.77;;
42518;SDS011;28147;47.520;18.920;2024-03-02T04:40:07;25.52;;;13.25;;
42518;SDS011;28147;47.520;18.920;2024-03-02T04:42:34;21.73;;;12.63;;
42518;SDS011;28147;47.520;18.920;2024-03-02T04:44:59;22.48;;;13.00;;
42518;SDS011;28147;47.520;18.920;2024-03-02T04:47:25;22.02;;;12.18;;
42518;SDS011;28147;47.520;18.920;2024-03-02T04:49:50;25.27;;;13.68;;
42518;SDS011;28147;47.520;18.920;2024-03-02T04:52:15;22.40;;;12.73;;
42518;SDS011;28147;47.520;18.920;2024-03-02T04:54:41;22.73;;;13.05;;
42518;SDS011;28147;47.520;18.920;2024-03-02T04:57:25;26.23;;;13.65;;
42518;SDS011;28147;47.520;18.920;2024-03-02T04:59:50;24.05;;;13.57;;
42518;SDS011;28147;47.520;18.920;2024-03-02T05:02:15;21.67;;;12.73;;
42518;SDS011;28147;47.520;18.920;2024-03-02T05:04:41;24.55;;;13.15;;
42518;SDS011;28147;47.520;18.920;2024-03-02T05:07:07;25.17;;;13.25;;
42518;SDS011;28147;47.520;18.920;2024-03-02T05:09:32;23.30;;;12.13;;
42518;SDS011;28147;47.520;18.920;2024-03-02T05:11:57;16.35;;;8.82;;
42518;SDS011;28147;47.520;18.920;2024-03-02T05:14:41;25.33;;;12.10;;
42518;SDS011;28147;47.520;18.920;2024-03-02T05:17:07;23.85;;;12.93;;
42518;SDS011;28147;47.520;18.920;2024-03-02T05:19:32;23.55;;;12.30;;
42518;SDS011;28147;47.520;18.920;2024-03-02T05:21:57;23.83;;;13.05;;
42518;SDS011;28147;47.520;18.920;2024-03-02T05:24:23;22.48;;;12.25;;
42518;SDS011;28147;47.520;18.920;2024-03-02T05:26:48;24.08;;;13.88;;
42518;SDS011;28147;47.520;18.920;2024-03-02T05:29:14;22.10;;;12.73;;
42518;SDS011;28147;47.520;18.920;2024-03-02T05:31:39;22.13;;;12.63;;
42518;SDS011;28147;47.520;18.920;2024-03-02T05:34:05;24.08;;;14.23;;
42518;SDS011;28147;47.520;18.920;2024-03-02T05:36:30;23.23;;;13.38;;
42518;SDS011;28147;47.520;18.920;2024-03-02T05:38:56;25.40;;;12.98;;
42518;SDS011;28147;47.520;18.920;2024-03-02T05:41:22;23.60;;;12.75;;
42518;SDS011;28147;47.520;18.920;2024-03-02T05:43:47;22.70;;;12.10;;
42518;SDS011;28147;47.520;18.920;2024-03-02T05:46:13;24.83;;;13.18;;
42518;SDS011;28147;47.520;18.920;2024-03-02T05:48:38;17.75;;;11.27;;
42518;SDS011;28147;47.520;18.920;2024-03-02T05:51:03;20.10;;;11.00;;
42518;SDS011;28147;47.520;18.920;2024-03-02T05:53:29;22.20;;;12.65;;
42518;SDS011;28147;47.520;18.920;2024-03-02T05:55:54;21.75;;;12.02;;
42518;SDS011;28147;47.520;18.920;2024-03-02T05:58:21;24.13;;;12.48;;
42518;SDS011;28147;47.520;18.920;2024-03-02T06:01:13;22.63;;;12.05;;
42518;SDS011;28147;47.520;18.920;2024-03-02T06:03:38;24.20;;;13.35;;
42518;SDS011;28147;47.520;18.920;2024-03-02T06:06:03;22.95;;;13.57;;
42518;SDS011;28147;47.520;18.920;2024-03-02T06:08:29;23.27;;;13.52;;
42518;SDS011;28147;47.520;18.920;2024-03-02T06:10:54;24.63;;;14.00;;
42518;SDS011;28147;47.520;18.920;2024-03-02T06:13:21;24.77;;;15.05;;
42518;SDS011;28147;47.520;18.920;2024-03-02T06:15:46;22.45;;;14.02;;
42518;SDS011;28147;47.520;18.920;2024-03-02T06:18:11;24.35;;;14.35;;
42518;SDS011;28147;47.520;18.920;2024-03-02T06:20:37;28.92;;;15.10;;
42518;SDS011;28147;47.520;18.920;2024-03-02T06:23:02;24.77;;;14.00;;
42518;SDS011;28147;47.520;18.920;2024-03-02T06:25:28;23.73;;;14.15;;
42518;SDS011;28147;47.520;18.920;2024-03-02T06:27:54;23.00;;;12.77;;
42518;SDS011;28147;47.520;18.920;2024-03-02T06:30:19;25.23;;;13.85;;
42518;SDS011;28147;47.520;18.920;2024-03-02T06:32:44;21.70;;;12.82;;
42518;SDS011;28147;47.520;18.920;2024-03-02T06:35:09;23.70;;;13.38;;
42518;SDS011;28147;47.520;18.920;2024-03-02T06:37:36;23.40;;;13.55;;
42518;SDS011;28147;47.520;18.920;2024-03-02T06:40:01;23.05;;;13.52;;
42518;SDS011;28147;47.520;18.920;2024-03-02T06:42:27;21.58;;;12.02;;
42518;SDS011;28147;47.520;18.920;2024-03-02T06:44:58;19.00;;;11.95;;
42518;SDS011;28147;47.520;18.920;2024-03-02T06:47:23;22.38;;;13.55;;
42518;SDS011;28147;47.520;18.920;2024-03-02T06:49:48;24.70;;;13.13;;
42518;SDS011;28147;47.520;18.920;2024-03-02T06:52:13;24.00;;;13.75;;
42518;SDS011;28147;47.520;18.920;2024-03-02T06:54:39;22.42;;;12.55;;
42518;SDS011;28147;47.520;18.920;2024-03-02T06:57:04;24.10;;;14.07;;
42518;SDS011;28147;47.520;18.920;2024-03-02T06:59:29;20.50;;;13.50;;
42518;SDS011;28147;47.520;18.920;2024-03-02T07:01:55;23.83;;;13.80;;
42518;SDS011;28147;47.520;18.920;2024-03-02T07:04:20;22.15;;;13.35;;
42518;SDS011;28147;47.520;18.920;2024-03-02T07:06:45;26.42;;;15.30;;
42518;SDS011;28147;47.520;18.920;2024-03-02T07:09:11;25.75;;;13.93;;
42518;SDS011;28147;47.520;18.920;2024-03-02T07:11:36;26.17;;;15.30;;
42518;SDS011;28147;47.520;18.920;2024-03-02T07:14:02;23.98;;;15.05;;
42518;SDS011;28147;47.520;18.920;2024-03-02T07:16:27;29.30;;;14.75;;
42518;SDS011;28147;47.520;18.920;2024-03-02T07:18:58;23.45;;;14.88;;
42518;SDS011;28147;47.520;18.920;2024-03-02T07:21:24;24.50;;;14.20;;
42518;SDS011;28147;47.520;18.920;2024-03-02T07:23:49;22.90;;;14.10;;
42518;SDS011;28147;47.520;18.920;2024-03-02T07:26:15;25.13;;;14.95;;
42518;SDS011;28147;47.520;18.920;2024-03-02T07:28:43;22.73;;;13.88;;
42518;SDS011;28147;47.520;18.920;2024-03-02T07:31:09;25.88;;;14.45;;
42518;SDS011;28147;47.520;18.920;2024-03-02T07:33:35;26.42;;;15.27;;
42518;SDS011;28147;47.520;18.920;2024-03-02T07:36:00;23.90;;;14.35;;
42518;SDS011;28147;47.520;18.920;2024-03-02T07:38:27;25.45;;;14.35;;
42518;SDS011;28147;47.520;18.920;2024-03-02T07:40:53;27.80;;;14.23;;
42518;SDS011;28147;47.520;18.920;2024-03-02T07:43:19;24.95;;;15.52;;
42518;SDS011;28147;47.520;18.920;2024-03-02T07:45:45;25.73;;;14.55;;
42518;SDS011;28147;47.520;18.920;2024-03-02T07:48:10;23.67;;;15.43;;
42518;SDS011;28147;47.520;18.920;2024-03-02T07:50:36;28.98;;;15.50;;
42518;SDS011;28147;47.520;18.920;2024-03-02T07:53:03;26.77;;;15.65;;
42518;SDS011;28147;47.520;18.920;2024-03-02T07:55:29;26.98;;;14.57;;
42518;SDS011;28147;47.520;18.920;2024-03-02T07:57:55;26.42;;;15.07;;
42518;SDS011;28147;47.520;18.920;2024-03-02T08:00:21;27.02;;;15.52;;
42518;SDS011;28147;47.520;18.920;2024-03-02T08:02:47;26.77;;;15.45;;
42518;SDS011;28147;47.520;18.920;2024-03-02T08:05:12;25.70;;;15.88;;
42518;SDS011;28147;47.520;18.920;2024-03-02T08:07:38;31.33;;;17.27;;
42518;SDS011;28147;47.520;18.920;2024-03-02T08:10:04;28.02;;;16.08;;
42518;SDS011;28147;47.520;18.920;2024-03-02T08:12:30;28.60;;;17.52;;
42518;SDS011;28147;47.520;18.920;2024-03-02T08:14:55;22.02;;;15.13;;
42518;SDS011;28147;47.520;18.920;2024-03-02T08:17:20;25.58;;;15.38;;
42518;SDS011;28147;47.520;18.920;2024-03-02T08:19:46;24.05;;;15.95;;
42518;SDS011;28147;47.520;18.920;2024-03-02T08:22:13;21.95;;;14.13;;
42518;SDS011;28147;47.520;18.920;2024-03-02T08:24:39;25.33;;;14.75;;
42518;SDS011;28147;47.520;18.920;2024-03-02T08:27:04;19.85;;;12.20;;
42518;SDS011;28147;47.520;18.920;2024-03-02T08:29:29;22.35;;;13.98;;
42518;SDS011;28147;47.520;18.920;2024-03-02T08:31:55;22.05;;;13.48;;
42518;SDS011;28147;47.520;18.920;2024-03-02T08:34:20;25.58;;;14.27;;
42518;SDS011;28147;47.520;18.920;2024-03-02T08:36:46;21.88;;;13.45;;
42518;SDS011;28147;47.520;18.920;2024-03-02T08:39:11;23.05;;;12.88;;
42518;SDS011;28147;47.520;18.920;2024-03-02T08:41:46;21.50;;;13.95;;
42518;SDS011;28147;47.520;18.920;2024-03-02T08:44:12;23.10;;;13.27;;
42518;SDS011;28147;47.520;18.920;2024-03-02T08:46:41;24.70;;;14.30;;
42518;SDS011;28147;47.520;18.920;2024-03-02T08:49:07;20.30;;;12.52;;
42518;SDS011;28147;47.520;18.920;2024-03-02T08:51:32;18.98;;;11.73;;
42518;SDS011;28147;47.520;18.920;2024-03-02T08:53:58;21.63;;;12.68;;
42518;SDS011;28147;47.520;18.920;2024-03-02T08:56:24;20.23;;;11.50;;
42518;SDS011;28147;47.520;18.920;2024-03-02T08:58:50;19.70;;;11.73;;
42518;SDS011;28147;47.520;18.920;2024-03-02T09:01:16;20.48;;;12.07;;
42518;SDS011;28147;47.520;18.920;2024-03-02T09:03:42;21.13;;;12.48;;
42518;SDS011;28147;47.520;18.920;2024-03-02T09:06:11;16.63;;;10.15;;
42518;SDS011;28147;47.520;18.920;2024-03-02T09:08:37;17.80;;;10.20;;
42518;SDS011;28147;47.520;18.920;2024-03-02T09:11:04;14.77;;;9.82;;
42518;SDS011;28147;47.520;18.920;2024-03-02T09:13:29;15.30;;;9.00;;
42518;SDS011;28147;47.520;18.920;2024-03-02T09:15:55;14.23;;;8.63;;
42518;SDS011;28147;47.520;18.920;2024-03-02T09:18:20;15.68;;;9.30;;
42518;SDS011;28147;47.520;18.920;2024-03-02T09:20:45;14.55;;;9.02;;
42518;SDS011;28147;47.520;18.920;2024-03-02T09:23:11;14.65;;;8.43;;
42518;SDS011;28147;47.520;18.920;2024-03-02T09:25:36;16.50;;;8.38;;
42518;SDS011;28147;47.520;18.920;2024-03-02T09:28:02;14.93;;;8.13;;
42518;SDS011;28147;47.520;18.920;2024-03-02T09:30:28;15.45;;;8.85;;
42518;SDS011;28147;47.520;18.920;2024-03-02T09:32:53;11.82;;;8.38;;
42518;SDS011;28147;47.520;18.920;2024-03-02T09:35:18;14.32;;;8.75;;
42518;SDS011;28147;47.520;18.920;2024-03-02T09:37:44;15.93;;;9.23;;
42518;SDS011;28147;47.520;18.920;2024-03-02T09:40:09;15.13;;;8.75;;
42518;SDS011;28147;47.520;18.920;2024-03-02T09:42:35;13.32;;;8.57;;
42518;SDS011;28147;47.520;18.920;2024-03-02T09:45:01;17.35;;;8.50;;
42518;SDS011;28147;47.520;18.920;2024-03-02T09:47:27;12.95;;;7.97;;
42518;SDS011;28147;47.520;18.920;2024-03-02T09:49:52;14.05;;;8.32;;
42518;SDS011;28147;47.520;18.920;2024-03-02T09:52:18;15.20;;;8.15;;
42518;SDS011;28147;47.520;18.920;2024-03-02T09:54:44;12.98;;;8.27;;
42518;SDS011;28147;47.520;18.920;2024-03-02T09:57:09;14.77;;;8.15;;
42518;SDS011;28147;47.520;18.920;2024-03-02T09:59:35;14.07;;;8.48;;
42518;SDS011;28147;47.520;18.920;2024-03-02T10:02:01;15.90;;;9.60;;
42518;SDS011;28147;47.520;18.920;2024-03-02T10:04:28;14.13;;;9.23;;
42518;SDS011;28147;47.520;18.920;2024-03-02T10:09:38;15.82;;;9.02;;
42518;SDS011;28147;47.520;18.920;2024-03-02T10:13:47;16.35;;;9.45;;
42518;SDS011;28147;47.520;18.920;2024-03-02T10:16:13;16.95;;;9.85;;
42518;SDS011;28147;47.520;18.920;2024-03-02T10:18:39;13.65;;;8.40;;
42518;SDS011;28147;47.520;18.920;2024-03-02T10:21:13;14.43;;;8.70;;
42518;SDS011;28147;47.520;18.920;2024-03-02T10:23:40;13.23;;;8.82;;
42518;SDS011;28147;47.520;18.920;2024-03-02T10:26:17;14.40;;;8.88;;
42518;SDS011;28147;47.520;18.920;2024-03-02T10:28:46;13.93;;;8.68;;
42518;SDS011;28147;47.520;18.920;2024-03-02T10:31:12;16.63;;;9.93;;
42518;SDS011;28147;47.520;18.920;2024-03-02T10:33:38;15.00;;;8.88;;
42518;SDS011;28147;47.520;18.920;2024-03-02T10:36:04;11.95;;;7.90;;
42518;SDS011;28147;47.520;18.920;2024-03-02T10:38:30;13.95;;;7.68;;
42518;SDS011;28147;47.520;18.920;2024-03-02T10:40:55;13.85;;;7.78;;
42518;SDS011;28147;47.520;18.920;2024-03-02T10:43:24;13.90;;;8.73;;
42518;SDS011;28147;47.520;18.920;2024-03-02T10:45:51;12.48;;;8.13;;
42518;SDS011;28147;47.520;18.920;2024-03-02T10:48:17;13.32;;;8.07;;
42518;SDS011;28147;47.520;18.920;2024-03-02T10:50:43;14.57;;;8.85;;
42518;SDS011;28147;47.520;18.920;2024-03-02T10:53:08;16.92;;;9.10;;
42518;SDS011;28147;47.520;18.920;2024-03-02T10:55:33;15.48;;;9.32;;
42518;SDS011;28147;47.520;18.920;2024-03-02T10:57:59;13.55;;;8.55;;
42518;SDS011;28147;47.520;18.920;2024-03-02T11:00:29;13.48;;;8.57;;
42518;SDS011;28147;47.520;18.920;2024-03-02T11:03:04;16.30;;;9.15;;
42518;SDS011;28147;47.520;18.920;2024-03-02T11:05:36;12.27;;;7.68;;
42518;SDS011;28147;47.520;18.920;2024-03-02T11:08:08;11.82;;;7.68;;
42518;SDS011;28147;47.520;18.920;2024-03-02T11:10:37;11.20;;;7.38;;
42518;SDS011;28147;47.520;18.920;2024-03-02T11:13:10;9.88;;;6.57;;
42518;SDS011;28147;47.520;18.920;2024-03-02T11:15:37;10.98;;;6.50;;
42518;SDS011;28147;47.520;18.920;2024-03-02T11:18:05;9.98;;;6.03;;
42518;SDS011;28147;47.520;18.920;2024-03-02T11:20:34;12.15;;;6.80;;
42518;SDS011;28147;47.520;18.920;2024-03-02T11:23:07;9.30;;;5.35;;
42518;SDS011;28147;47.520;18.920;2024-03-02T11:25:33;10.63;;;6.40;;
42518;SDS011;28147;47.520;18.920;2024-03-02T11:27:59;9.95;;;5.63;;
42518;SDS011;28147;47.520;18.920;2024-03-02T11:32:57;9.82;;;5.70;;
42518;SDS011;28147;47.520;18.920;2024-03-02T11:35:27;10.20;;;5.43;;
42518;SDS011;28147;47.520;18.920;2024-03-02T11:37:55;9.35;;;6.22;;
42518;SDS011;28147;47.520;18.920;2024-03-02T11:40:27;10.73;;;6.85;;
42518;SDS011;28147;47.520;18.920;2024-03-02T11:42:53;9.30;;;6.07;;
42518;SDS011;28147;47.520;18.920;2024-03-02T11:45:25;6.97;;;4.60;;
42518;SDS011;28147;47.520;18.920;2024-03-02T11:47:51;8.00;;;4.78;;
42518;SDS011;28147;47.520;18.920;2024-03-02T11:51:19;7.10;;;4.30;;
42518;SDS011;28147;47.520;18.920;2024-03-02T11:53:17;7.30;;;4.75;;
42518;SDS011;28147;47.520;18.920;2024-03-02T11:55:43;7.32;;;4.43;;
42518;SDS011;28147;47.520;18.920;2024-03-02T11:58:11;7.47;;;4.85;;
42518;SDS011;28147;47.520;18.920;2024-03-02T12:00:37;8.65;;;5.40;;
42518;SDS011;28147;47.520;18.920;2024-03-02T12:03:04;7.60;;;4.95;;
42518;SDS011;28147;47.520;18.920;2024-03-02T12:08:00;6.65;;;4.63;;
42518;SDS011;28147;47.520;18.920;2024-03-02T12:12:59;6.28;;;3.72;;
42518;SDS011;28147;47.520;18.920;2024-03-02T12:15:27;6.82;;;4.30;;
42518;SDS011;28147;47.520;18.920;2024-03-02T12:17:54;6.85;;;4.13;;
42518;SDS011;28147;47.520;18.920;2024-03-02T12:20:29;8.75;;;4.25;;
42518;SDS011;28147;47.520;18.920;2024-03-02T12:22:57;7.22;;;4.30;;
42518;SDS011;28147;47.520;18.920;2024-03-02T12:25:25;7.38;;;4.55;;
42518;SDS011;28147;47.520;18.920;2024-03-02T12:27:55;5.90;;;4.05;;
42518;SDS011;28147;47.520;18.920;2024-03-02T12:30:24;6.30;;;3.72;;
42518;SDS011;28147;47.520;18.920;2024-03-02T12:32:51;5.05;;;3.47;;
42518;SDS011;28147;47.520;18.920;2024-03-02T12:35:17;6.13;;;3.45;;
42518;SDS011;28147;47.520;18.920;2024-03-02T12:37:49;7.03;;;4.03;;
42518;SDS011;28147;47.520;18.920;2024-03-02T12:40:16;5.88;;;4.10;;
42518;SDS011;28147;47.520;18.920;2024-03-02T12:42:43;5.95;;;3.92;;
42518;SDS011;28147;47.520;18.920;2024-03-02T12:45:10;6.38;;;3.92;;
42518;SDS011;28147;47.520;18.920;2024-03-02T12:47:36;6.65;;;3.97;;
42518;SDS011;28147;47.520;18.920;2024-03-02T12:50:03;7.05;;;3.95;;
42518;SDS011;28147;47.520;18.920;2024-03-02T12:52:29;6.47;;;4.18;;
42518;SDS011;28147;47.520;18.920;2024-03-02T12:54:55;6.03;;;4.03;;
42518;SDS011;28147;47.520;18.920;2024-03-02T12:57:27;6.32;;;4.15;;
42518;SDS011;28147;47.520;18.920;2024-03-02T12:59:57;8.13;;;5.15;;
42518;SDS011;28147;47.520;18.920;2024-03-02T13:02:23;10.02;;;4.45;;
42518;SDS011;28147;47.520;18.920;2024-03-02T13:04:53;5.33;;;3.03;;
42518;SDS011;28147;47.520;18.920;2024-03-02T13:07:22;7.68;;;4.38;;
42518;SDS011;28147;47.520;18.920;2024-03-02T13:09:52;7.70;;;4.63;;
42518;SDS011;28147;47.520;18.920;2024-03-02T13:12:20;6.28;;;3.88;;
42518;SDS011;28147;47.520;18.920;2024-03-02T13:14:55;5.93;;;3.97;;
42518;SDS011;28147;47.520;18.920;2024-03-02T13:17:23;7.00;;;4.38;;
42518;SDS011;28147;47.520;18.920;2024-03-02T13:19:58;7.20;;;4.45;;
42518;SDS011;28147;47.520;18.920;2024-03-02T13:22:24;7.30;;;4.75;;
42518;SDS011;28147;47.520;18.920;2024-03-02T13:24:50;8.50;;;5.53;;
42518;SDS011;28147;47.520;18.920;2024-03-02T13:27:17;8.88;;;6.15;;
42518;SDS011;28147;47.520;18.920;2024-03-02T13:29:48;9.32;;;5.65;;
42518;SDS011;28147;47.520;18.920;2024-03-02T13:32:14;10.07;;;6.32;;
42518;SDS011;28147;47.520;18.920;2024-03-02T13:34:39;10.82;;;6.60;;
42518;SDS011;28147;47.520;18.920;2024-03-02T13:37:05;10.45;;;6.88;;
42518;SDS011;28147;47.520;18.920;2024-03-02T13:39:31;12.05;;;7.75;;
42518;SDS011;28147;47.520;18.920;2024-03-02T13:41:57;14.13;;;8.07;;
42518;SDS011;28147;47.520;18.920;2024-03-02T13:44:31;11.18;;;7.57;;
42518;SDS011;28147;47.520;18.920;2024-03-02T13:46:56;11.02;;;7.32;;
42518;SDS011;28147;47.520;18.920;2024-03-02T13:49:23;12.10;;;7.55;;
42518;SDS011;28147;47.520;18.920;2024-03-02T13:51:48;10.15;;;7.18;;
42518;SDS011;28147;47.520;18.920;2024-03-02T13:54:14;13.23;;;8.32;;
42518;SDS011;28147;47.520;18.920;2024-03-02T13:56:39;13.93;;;8.27;;
42518;SDS011;28147;47.520;18.920;2024-03-02T13:59:06;12.52;;;7.85;;
42518;SDS011;28147;47.520;18.920;2024-03-02T14:01:32;10.90;;;7.22;;
42518;SDS011;28147;47.520;18.920;2024-03-02T14:03:57;14.27;;;8.05;;
42518;SDS011;28147;47.520;18.920;2024-03-02T14:06:23;11.75;;;7.20;;
42518;SDS011;28147;47.520;18.920;2024-03-02T14:08:48;12.75;;;7.57;;
42518;SDS011;28147;47.520;18.920;2024-03-02T14:11:14;12.38;;;7.38;;
42518;SDS011;28147;47.520;18.920;2024-03-02T14:13:43;12.18;;;6.95;;
42518;SDS011;28147;47.520;18.920;2024-03-02T14:16:18;14.05;;;8.52;;
42518;SDS011;28147;47.520;18.920;2024-03-02T14:18:44;16.48;;;9.43;;
42518;SDS011;28147;47.520;18.920;2024-03-02T14:21:09;15.77;;;8.60;;
42518;SDS011;28147;47.520;18.920;2024-03-02T14:23:38;16.08;;;9.52;;
42518;SDS011;28147;47.520;18.920;2024-03-02T14:26:03;19.42;;;9.55;;
42518;SDS011;28147;47.520;18.920;2024-03-02T14:28:28;16.60;;;8.57;;
42518;SDS011;28147;47.520;18.920;2024-03-02T14:30:54;15.88;;;9.32;;
42518;SDS011;28147;47.520;18.920;2024-03-02T14:33:19;17.33;;;9.07;;